createdAt,value
2023-02-11T00:01:26.160Z,99.90
2023-02-11T00:03:56.489Z,99.90
2023-02-11T00:06:25.785Z,99.90
2023-02-11T00:08:54.541Z,99.90
2023-02-11T00:11:25.580Z,99.90
2023-02-11T00:13:54.267Z,99.90
2023-02-11T00:16:22.973Z,99.90
2023-02-11T00:18:53.174Z,99.90
2023-02-11T00:21:25.585Z,99.90
2023-02-11T00:23:55.004Z,99.90
2023-02-11T00:26:26.642Z,99.90
2023-02-11T00:28:57.137Z,99.90
2023-02-11T00:31:26.172Z,99.90
2023-02-11T00:33:55.356Z,99.90
2023-02-11T00:36:27.910Z,99.90
2023-02-11T00:38:57.891Z,99.90
2023-02-11T00:41:26.884Z,99.90
2023-02-11T00:43:55.453Z,99.90
2023-02-11T00:46:24.597Z,99.90
2023-02-11T00:48:55.179Z,99.90
2023-02-11T00:51:25.546Z,99.90
2023-02-11T00:53:54.450Z,99.90
2023-02-11T00:56:23.120Z,99.90
2023-02-11T00:58:51.695Z,99.90
2023-02-11T01:01:20.200Z,99.90
2023-02-11T01:03:49.018Z,99.90
2023-02-11T01:06:17.956Z,99.90
2023-02-11T01:08:47.879Z,99.90
2023-02-11T01:11:19.044Z,99.90
2023-02-11T01:13:49.004Z,99.90
2023-02-11T01:16:18.295Z,99.90
2023-02-11T01:18:47.520Z,99.90
2023-02-11T01:21:18.598Z,99.90
2023-02-11T01:23:48.514Z,99.90
2023-02-11T01:26:17.088Z,99.90
2023-02-11T01:28:45.654Z,99.90
2023-02-11T01:31:14.475Z,99.90
2023-02-11T01:33:43.239Z,99.90
2023-02-11T01:36:12.878Z,99.90
2023-02-11T01:38:42.001Z,99.90
2023-02-11T01:41:14.665Z,99.90
2023-02-11T01:43:45.217Z,99.90
2023-02-11T01:46:27.486Z,99.90
2023-02-11T01:48:59.292Z,99.90
2023-02-11T01:51:32.977Z,99.90
2023-02-11T01:54:20.926Z,99.90
2023-02-11T01:57:11.275Z,99.90
2023-02-11T01:59:46.147Z,99.90
2023-02-11T02:02:17.472Z,99.90
2023-02-11T02:04:51.930Z,99.90
2023-02-11T02:07:29.684Z,99.90
2023-02-11T02:10:04.681Z,99.90
2023-02-11T02:12:34.624Z,99.90
2023-02-11T02:15:27.654Z,99.90
2023-02-11T02:18:04.803Z,99.90
2023-02-11T02:21:10.363Z,99.90
2023-02-11T02:23:58.684Z,99.90
2023-02-11T02:26:52.933Z,99.90
2023-02-11T02:29:57.075Z,99.90
2023-02-11T02:32:49.617Z,99.90
2023-02-11T02:35:30.684Z,99.90
2023-02-11T02:38:04.258Z,99.90
2023-02-11T02:40:37.693Z,99.90
2023-02-11T02:43:07.951Z,99.90
2023-02-11T02:45:36.573Z,99.90
2023-02-11T02:48:06.805Z,99.90
2023-02-11T02:50:38.528Z,99.90
2023-02-11T02:53:27.007Z,99.90
2023-02-11T02:56:03.689Z,99.90
2023-02-11T02:58:55.247Z,99.90
2023-02-11T03:01:34.342Z,99.90
2023-02-11T03:04:13.411Z,99.90
2023-02-11T03:06:49.515Z,99.90
2023-02-11T03:09:23.243Z,99.90
2023-02-11T03:11:51.836Z,99.90
2023-02-11T03:14:22.347Z,99.90
2023-02-11T03:16:53.009Z,99.90
2023-02-11T03:19:25.317Z,99.90
2023-02-11T03:21:56.116Z,99.90
2023-02-11T03:24:30.820Z,99.90
2023-02-11T03:27:03.153Z,99.90
2023-02-11T03:29:36.676Z,99.90
2023-02-11T03:32:12.374Z,99.90
2023-02-11T03:34:48.366Z,99.90
2023-02-11T03:37:21.566Z,99.90
2023-02-11T03:39:55.762Z,99.90
2023-02-11T03:42:28.233Z,99.90
2023-02-11T03:45:06.311Z,99.90
2023-02-11T03:47:39.622Z,99.90
2023-02-11T03:50:11.833Z,99.90
2023-02-11T03:52:40.623Z,99.90
2023-02-11T03:55:13.323Z,99.90
2023-02-11T03:57:42.028Z,99.90
2023-02-11T04:00:12.265Z,99.90
2023-02-11T04:02:41.642Z,99.90
2023-02-11T04:05:14.063Z,99.90
2023-02-11T04:07:42.977Z,99.90
2023-02-11T04:10:13.514Z,99.90
2023-02-11T04:12:42.083Z,99.90
2023-02-11T04:15:11.185Z,99.90
2023-02-11T04:17:40.149Z,99.90
2023-02-11T04:20:09.669Z,99.90
2023-02-11T04:22:39.782Z,99.90
2023-02-11T04:25:12.025Z,99.90
2023-02-11T04:27:40.648Z,99.90
2023-02-11T04:30:13.512Z,99.90
2023-02-11T04:32:42.122Z,99.90
2023-02-11T04:35:10.529Z,99.90
2023-02-11T04:37:43.544Z,99.90
2023-02-11T04:40:12.665Z,99.90
2023-02-11T04:42:41.205Z,99.90
2023-02-11T04:45:10.385Z,99.90
2023-02-11T04:47:38.912Z,99.90
2023-02-11T04:50:07.972Z,99.90
2023-02-11T04:52:36.518Z,99.90
2023-02-11T04:55:07.605Z,99.90
2023-02-11T04:57:36.258Z,99.90
2023-02-11T05:00:05.797Z,99.90
2023-02-11T05:02:34.358Z,99.90
2023-02-11T05:05:02.882Z,99.90
2023-02-11T05:07:31.341Z,99.90
2023-02-11T05:09:59.795Z,99.90
2023-02-11T05:12:29.735Z,99.90
2023-02-11T05:14:58.174Z,99.90
2023-02-11T05:17:26.662Z,99.90
2023-02-11T05:19:55.113Z,99.90
2023-02-11T05:22:23.739Z,99.90
2023-02-11T05:24:52.427Z,99.90
2023-02-11T05:27:21.304Z,99.90
2023-02-11T05:29:51.172Z,99.90
2023-02-11T05:32:19.720Z,99.90
2023-02-11T05:34:48.250Z,99.90
2023-02-11T05:37:16.830Z,99.90
2023-02-11T05:39:45.382Z,99.90
2023-02-11T05:42:14.419Z,99.90
2023-02-11T05:44:42.973Z,99.90
2023-02-11T05:47:12.873Z,99.90
2023-02-11T05:49:41.531Z,99.90
2023-02-11T05:52:10.064Z,99.90
2023-02-11T05:54:38.664Z,99.90
2023-02-11T05:57:07.112Z,99.90
2023-02-11T05:59:35.658Z,99.90
2023-02-11T06:02:04.290Z,99.90
2023-02-11T06:04:34.234Z,99.90
2023-02-11T06:07:02.709Z,99.90
2023-02-11T06:09:31.341Z,99.90
2023-02-11T06:11:59.731Z,99.90
2023-02-11T06:14:28.385Z,99.90
2023-02-11T06:16:56.818Z,99.90
2023-02-11T06:19:25.359Z,99.90
2023-02-11T06:21:55.180Z,99.90
2023-02-11T06:24:47.738Z,99.90
2023-02-11T06:27:12.554Z,99.90
2023-02-11T06:29:41.244Z,99.90
2023-02-11T06:32:23.307Z,99.90
2023-02-11T06:34:58.321Z,99.90
2023-02-11T06:37:28.217Z,99.90
2023-02-11T06:39:56.769Z,99.90
2023-02-11T06:42:25.227Z,99.90
2023-02-11T06:44:54.158Z,99.90
2023-02-11T06:47:22.652Z,99.90
2023-02-11T06:49:51.189Z,99.90
2023-02-11T06:52:19.646Z,99.90
2023-02-11T06:54:49.575Z,99.90
2023-02-11T06:57:18.033Z,99.90
2023-02-11T06:59:46.582Z,99.90
2023-02-11T07:02:15.139Z,99.90
2023-02-11T07:04:44.153Z,99.90
2023-02-11T07:07:12.602Z,99.90
2023-02-11T07:09:41.074Z,99.90
2023-02-11T07:12:12.294Z,99.90
2023-02-11T07:14:41.648Z,99.90
2023-02-11T07:17:10.088Z,99.90
2023-02-11T07:19:38.615Z,99.90
2023-02-11T07:22:07.197Z,99.90
2023-02-11T07:24:35.743Z,99.90
2023-02-11T07:27:04.738Z,99.90
2023-02-11T07:29:34.770Z,99.90
2023-02-11T07:32:03.407Z,99.90
2023-02-11T07:34:32.011Z,99.90
2023-02-11T07:37:00.612Z,99.90
2023-02-11T07:39:29.546Z,99.90
2023-02-11T07:41:58.500Z,99.90
2023-02-11T07:44:27.608Z,99.90
2023-02-11T07:46:57.599Z,96.00
2023-02-11T07:49:26.203Z,93.50
2023-02-11T07:51:54.743Z,92.60
2023-02-11T07:54:23.259Z,89.70
2023-02-11T07:56:51.853Z,89.30
2023-02-11T07:59:20.404Z,85.70
2023-02-11T08:01:51.432Z,78.90
2023-02-11T08:04:21.314Z,78.20
2023-02-11T08:06:49.869Z,77.50
2023-02-11T08:09:18.305Z,70.80
2023-02-11T08:11:47.109Z,71.00
2023-02-11T08:14:16.150Z,70.00
2023-02-11T08:16:44.740Z,69.70
2023-02-11T08:19:15.222Z,69.50
2023-02-11T08:21:45.176Z,65.50
2023-02-11T08:24:14.025Z,62.80
2023-02-11T08:26:42.547Z,61.60
2023-02-11T08:29:15.214Z,64.20
2023-02-11T08:31:45.661Z,70.60
2023-02-11T08:34:18.335Z,77.30
2023-02-11T08:36:49.780Z,84.80
2023-02-11T08:39:20.746Z,90.00
2023-02-11T08:41:50.766Z,87.00
2023-02-11T08:44:20.107Z,84.20
2023-02-11T08:46:49.569Z,88.50
2023-02-11T08:49:18.588Z,90.80
2023-02-11T08:51:48.547Z,92.70
2023-02-11T08:54:17.431Z,92.80
2023-02-11T08:56:46.674Z,90.10
2023-02-11T08:59:17.808Z,90.00
2023-02-11T09:01:47.385Z,87.00
2023-02-11T09:04:16.168Z,85.50
2023-02-11T09:06:45.100Z,84.30
2023-02-11T09:09:16.772Z,87.40
2023-02-11T09:11:46.215Z,85.90
2023-02-11T09:14:19.417Z,85.70
2023-02-11T09:16:48.226Z,84.50
2023-02-11T09:19:17.122Z,87.60
2023-02-11T09:21:45.603Z,87.70
2023-02-11T09:24:15.657Z,87.90
2023-02-11T09:26:44.502Z,87.70
2023-02-11T09:29:13.467Z,86.70
2023-02-11T09:31:42.317Z,87.20
2023-02-11T09:34:12.391Z,85.50
2023-02-11T09:36:41.653Z,83.40
2023-02-11T09:39:14.445Z,82.90
2023-02-11T09:42:00.354Z,81.30
2023-02-11T09:44:31.219Z,82.40
2023-02-11T09:47:01.358Z,82.00
2023-02-11T09:49:38.389Z,81.00
2023-02-11T09:52:10.456Z,80.30
2023-02-11T09:54:47.171Z,82.70
2023-02-11T09:57:28.182Z,83.00
2023-02-11T09:59:58.428Z,82.50
2023-02-11T10:02:35.407Z,82.40
2023-02-11T10:05:22.931Z,82.60
2023-02-11T10:08:01.550Z,82.00
2023-02-11T10:10:47.867Z,84.90
2023-02-11T10:13:33.894Z,84.20
2023-02-11T10:16:11.248Z,81.90
2023-02-11T10:18:53.044Z,82.70
2023-02-11T10:21:29.324Z,84.00
2023-02-11T10:24:01.987Z,83.20
2023-02-11T10:26:33.152Z,81.40
2023-02-11T10:29:12.731Z,81.00
2023-02-11T10:31:43.908Z,79.10
2023-02-11T10:34:14.554Z,81.20
2023-02-11T10:36:45.406Z,81.10
2023-02-11T10:39:16.906Z,79.10
2023-02-11T10:41:47.655Z,79.10
2023-02-11T10:44:25.854Z,79.10
2023-02-11T10:46:55.711Z,81.10
2023-02-11T10:49:39.530Z,81.00
2023-02-11T10:52:25.022Z,79.70
2023-02-11T10:55:05.761Z,78.90
2023-02-11T10:57:40.065Z,79.80
2023-02-11T11:00:32.576Z,79.50
2023-02-11T11:03:03.021Z,79.30
2023-02-11T11:05:34.159Z,79.10
2023-02-11T11:08:06.690Z,79.00
2023-02-11T11:10:43.674Z,80.30
2023-02-11T11:13:28.081Z,78.90
2023-02-11T11:16:21.769Z,77.40
2023-02-11T11:18:52.365Z,79.80
2023-02-11T11:21:24.380Z,80.80
2023-02-11T11:23:58.371Z,79.10
2023-02-11T11:26:28.670Z,79.70
2023-02-11T11:29:01.140Z,79.50
2023-02-11T11:31:34.898Z,79.60
2023-02-11T11:34:20.183Z,78.20
2023-02-11T11:36:49.146Z,77.40
2023-02-11T11:39:23.255Z,79.50
2023-02-11T11:41:54.791Z,78.70
2023-02-11T11:44:33.813Z,78.40
2023-02-11T11:47:30.599Z,77.30
2023-02-11T11:50:28.835Z,78.90
2023-02-11T11:53:01.802Z,77.40
2023-02-11T11:55:36.071Z,75.20
2023-02-11T11:58:06.989Z,75.80
2023-02-11T12:00:58.829Z,74.40
2023-02-11T12:04:02.686Z,75.60
2023-02-11T12:06:41.195Z,75.50
2023-02-11T12:09:21.169Z,77.50
2023-02-11T12:12:18.831Z,75.10
2023-02-11T12:14:56.303Z,76.00
2023-02-11T12:17:39.326Z,75.90
2023-02-11T12:20:23.854Z,76.30
2023-02-11T12:23:02.841Z,75.00
2023-02-11T12:25:40.178Z,73.00
2023-02-11T12:28:22.103Z,72.30
2023-02-11T12:31:12.170Z,72.10
2023-02-11T12:34:11.336Z,71.00
2023-02-11T12:36:55.517Z,71.00
2023-02-11T12:39:35.233Z,71.10
2023-02-11T12:42:38.319Z,72.60
2023-02-11T12:45:22.726Z,74.00
2023-02-11T12:48:05.471Z,73.10
2023-02-11T12:50:44.169Z,72.10
2023-02-11T12:53:31.558Z,71.40
2023-02-11T12:56:04.614Z,72.90
2023-02-11T12:58:44.854Z,72.90
2023-02-11T13:01:20.695Z,72.80
2023-02-11T13:03:52.671Z,72.80
2023-02-11T13:06:25.873Z,73.10
2023-02-11T13:09:00.659Z,74.00
2023-02-11T13:11:40.192Z,75.60
2023-02-11T13:14:16.949Z,77.30
2023-02-11T13:16:48.893Z,77.50
2023-02-11T13:19:26.684Z,76.90
2023-02-11T13:22:07.087Z,75.30
2023-02-11T13:24:44.346Z,73.80
2023-02-11T13:27:31.657Z,73.40
2023-02-11T13:30:28.456Z,75.90
2023-02-11T13:33:22.274Z,76.00
2023-02-11T13:36:12.999Z,74.00
2023-02-11T13:38:41.645Z,73.30
2023-02-11T13:41:21.171Z,71.30
2023-02-11T13:44:00.286Z,72.00
2023-02-11T13:46:43.018Z,73.50
2023-02-11T13:49:21.153Z,73.40
2023-02-11T13:51:50.362Z,72.60
2023-02-11T13:54:29.710Z,71.00
2023-02-11T13:57:23.673Z,69.60
2023-02-11T13:59:53.442Z,68.90
2023-02-11T14:02:51.788Z,69.50
2023-02-11T14:05:47.799Z,71.90
2023-02-11T14:08:39.813Z,73.30
2023-02-11T14:11:12.836Z,73.30
2023-02-11T14:14:19.926Z,72.30
2023-02-11T14:17:21.317Z,71.30
2023-02-11T14:19:50.642Z,71.30
2023-02-11T14:22:23.826Z,72.90
2023-02-11T14:24:55.659Z,75.00
2023-02-11T14:27:43.487Z,75.90
2023-02-11T14:30:52.719Z,75.30
2023-02-11T14:33:36.034Z,75.70
2023-02-11T14:36:13.968Z,76.20
2023-02-11T14:38:54.892Z,74.80
2023-02-11T14:41:26.213Z,74.40
2023-02-11T14:43:56.917Z,74.90
2023-02-11T14:46:27.783Z,74.20
2023-02-11T14:49:01.461Z,74.10
2023-02-11T14:51:32.936Z,72.80
2023-02-11T14:54:12.980Z,71.70
2023-02-11T14:56:42.402Z,73.00
2023-02-11T14:59:18.955Z,74.10
2023-02-11T15:01:50.787Z,75.30
2023-02-11T15:04:29.259Z,75.10
2023-02-11T15:06:59.544Z,75.30
2023-02-11T15:09:35.255Z,75.10
2023-02-11T15:12:04.410Z,75.30
2023-02-11T15:14:34.843Z,75.10
2023-02-11T15:17:06.810Z,75.00
2023-02-11T15:19:41.754Z,74.10
2023-02-11T15:22:20.231Z,75.60
2023-02-11T15:25:00.300Z,76.30
2023-02-11T15:27:48.795Z,76.20
2023-02-11T15:30:27.667Z,75.10
2023-02-11T15:33:25.362Z,75.50
2023-02-11T15:35:55.179Z,75.80
2023-02-11T15:38:23.811Z,75.60
2023-02-11T15:40:58.426Z,75.30
2023-02-11T15:43:42.125Z,75.90
2023-02-11T15:46:12.739Z,75.70
2023-02-11T15:48:45.659Z,75.70
2023-02-11T15:51:22.030Z,76.70
2023-02-11T15:53:56.888Z,77.40
2023-02-11T15:56:29.799Z,76.80
2023-02-11T15:59:01.357Z,77.10
2023-02-11T16:01:33.806Z,76.50
2023-02-11T16:04:03.557Z,77.20
2023-02-11T16:06:40.023Z,78.10
2023-02-11T16:09:26.594Z,77.80
2023-02-11T16:11:58.165Z,78.20
2023-02-11T16:14:31.878Z,80.10
2023-02-11T16:17:04.195Z,80.80
2023-02-11T16:19:34.518Z,80.00
2023-02-11T16:22:09.752Z,81.20
2023-02-11T16:24:39.654Z,82.00
2023-02-11T16:27:19.331Z,81.60
2023-02-11T16:29:49.632Z,85.10
2023-02-11T16:32:19.899Z,89.20
2023-02-11T16:34:48.548Z,89.80
2023-02-11T16:37:18.650Z,86.80
2023-02-11T16:39:47.080Z,86.60
2023-02-11T16:42:15.665Z,90.60
2023-02-11T16:44:44.144Z,91.80
2023-02-11T16:47:20.955Z,90.40
2023-02-11T16:49:49.525Z,90.50
2023-02-11T16:52:21.649Z,90.60
2023-02-11T16:54:50.126Z,90.50
2023-02-11T16:57:20.417Z,92.80
2023-02-11T16:59:49.163Z,93.70
2023-02-11T17:02:24.222Z,93.30
2023-02-11T17:04:54.067Z,93.10
2023-02-11T17:07:24.171Z,93.30
2023-02-11T17:09:52.971Z,93.10
2023-02-11T17:12:21.782Z,93.10
2023-02-11T17:14:50.364Z,94.40
2023-02-11T17:17:18.822Z,95.00
2023-02-11T17:19:48.464Z,93.90
2023-02-11T17:22:16.932Z,93.90
2023-02-11T17:24:46.907Z,94.10
2023-02-11T17:27:15.487Z,96.20
2023-02-11T17:29:44.030Z,98.00
2023-02-11T17:32:12.507Z,99.70
2023-02-11T17:34:41.241Z,98.00
2023-02-11T17:37:10.017Z,97.80
2023-02-11T17:39:39.193Z,97.60
2023-02-11T17:42:09.702Z,98.50
2023-02-11T17:44:38.404Z,99.60
2023-02-11T17:47:07.767Z,99.90
2023-02-11T17:49:36.376Z,99.50
2023-02-11T17:52:04.882Z,98.90
2023-02-11T17:54:33.401Z,99.30
2023-02-11T17:57:01.812Z,99.00
2023-02-11T17:59:35.428Z,99.90
2023-02-11T18:02:05.123Z,99.90
2023-02-11T18:04:34.051Z,99.90
2023-02-11T18:07:02.730Z,99.90
2023-02-11T18:09:31.243Z,99.90
2023-02-11T18:11:59.627Z,99.90
2023-02-11T18:14:28.314Z,99.90
2023-02-11T18:16:58.209Z,99.90
2023-02-11T18:19:30.534Z,99.90
2023-02-11T18:22:00.973Z,99.90
2023-02-11T18:24:29.749Z,99.90
2023-02-11T18:26:58.216Z,99.90
2023-02-11T18:29:26.894Z,99.90
2023-02-11T18:31:58.320Z,99.90
2023-02-11T18:34:27.203Z,99.90
2023-02-11T18:36:55.650Z,99.90
2023-02-11T18:39:26.504Z,99.90
2023-02-11T18:41:56.915Z,99.90
2023-02-11T18:44:26.123Z,99.90
2023-02-11T18:46:55.188Z,99.90
2023-02-11T18:49:25.215Z,99.90
2023-02-11T18:51:53.641Z,99.90
2023-02-11T18:54:22.147Z,99.90
2023-02-11T18:56:50.625Z,99.90
2023-02-11T18:59:19.129Z,99.90
2023-02-11T19:01:47.890Z,99.90
2023-02-11T19:04:20.037Z,99.90
2023-02-11T19:06:50.726Z,99.90
2023-02-11T19:09:21.185Z,99.90
2023-02-11T19:11:50.491Z,99.90
2023-02-11T19:14:22.879Z,99.90
2023-02-11T19:16:53.259Z,99.90
2023-02-11T19:19:23.268Z,99.90
2023-02-11T19:21:53.145Z,99.90
2023-02-11T19:24:22.712Z,99.90
2023-02-11T19:26:53.255Z,99.90
2023-02-11T19:29:22.099Z,99.90
2023-02-11T19:31:51.110Z,99.90
2023-02-11T19:34:21.007Z,99.90
2023-02-11T19:36:49.877Z,99.90
2023-02-11T19:39:19.698Z,99.90
2023-02-11T19:41:48.210Z,99.90
2023-02-11T19:44:16.737Z,99.90
2023-02-11T19:46:46.099Z,99.90
2023-02-11T19:49:16.556Z,99.90
2023-02-11T19:51:45.058Z,99.90
2023-02-11T19:54:13.508Z,99.90
2023-02-11T19:56:44.868Z,99.90
2023-02-11T19:59:15.276Z,99.90
2023-02-11T20:01:47.636Z,99.90
2023-02-11T20:04:16.878Z,99.90
2023-02-11T20:06:48.348Z,99.90
2023-02-11T20:09:17.204Z,99.90
2023-02-11T20:11:47.221Z,99.90
2023-02-11T20:14:15.936Z,99.90
2023-02-11T20:16:49.047Z,99.90
2023-02-11T20:19:20.079Z,99.90
2023-02-11T20:21:50.150Z,99.90
2023-02-11T20:24:19.385Z,99.90
2023-02-11T20:26:49.875Z,99.90
2023-02-11T20:29:18.988Z,99.90
2023-02-11T20:31:47.646Z,99.90
2023-02-11T20:34:17.666Z,99.90
2023-02-11T20:36:51.946Z,99.90
2023-02-11T20:39:22.453Z,99.90
2023-02-11T20:41:53.783Z,99.90
2023-02-11T20:44:22.968Z,99.90
2023-02-11T20:46:52.174Z,99.90
2023-02-11T20:49:23.054Z,99.90
2023-02-11T20:51:53.805Z,99.90
2023-02-11T20:54:23.651Z,99.90
2023-02-11T20:56:55.426Z,99.90
2023-02-11T20:59:26.489Z,99.90
2023-02-11T21:01:57.115Z,99.90
2023-02-11T21:04:27.643Z,99.90
2023-02-11T21:06:58.467Z,99.90
2023-02-11T21:09:28.623Z,99.90
2023-02-11T21:11:58.817Z,99.90
2023-02-11T21:14:28.184Z,99.90
2023-02-11T21:16:57.639Z,99.90
2023-02-11T21:19:26.132Z,99.90
2023-02-11T21:21:55.198Z,99.90
2023-02-11T21:24:23.846Z,99.90
2023-02-11T21:26:52.384Z,99.90
2023-02-11T21:29:22.187Z,99.90
2023-02-11T21:31:51.503Z,99.90
2023-02-11T21:34:21.797Z,99.90
2023-02-11T21:36:51.278Z,99.90
2023-02-11T21:39:20.279Z,99.90
2023-02-11T21:41:49.005Z,99.90
2023-02-11T21:44:17.418Z,99.90
2023-02-11T21:46:47.392Z,99.90
2023-02-11T21:49:15.888Z,99.90
2023-02-11T21:51:44.388Z,99.90
2023-02-11T21:54:12.947Z,99.90
2023-02-11T21:56:41.598Z,99.90
2023-02-11T21:59:14.336Z,99.90
2023-02-11T22:01:42.872Z,99.90
2023-02-11T22:04:13.204Z,99.90
2023-02-11T22:06:41.904Z,99.90
2023-02-11T22:09:11.588Z,99.90
2023-02-11T22:11:41.055Z,99.90
2023-02-11T22:14:09.786Z,99.90
2023-02-11T22:16:38.418Z,99.90
2023-02-11T22:19:07.617Z,99.90
2023-02-11T22:21:37.705Z,99.90
2023-02-11T22:24:06.945Z,99.90
2023-02-11T22:26:35.569Z,99.90
2023-02-11T22:29:04.375Z,99.90
2023-02-11T22:31:34.661Z,99.90
2023-02-11T22:34:04.563Z,99.90
2023-02-11T22:36:35.727Z,99.90
2023-02-11T22:39:07.978Z,99.90
2023-02-11T22:41:38.409Z,99.90
2023-02-11T22:44:06.923Z,99.90
2023-02-11T22:46:35.747Z,99.90
2023-02-11T22:49:04.333Z,99.90
2023-02-11T22:51:33.281Z,99.90
2023-02-11T22:54:03.514Z,99.90
2023-02-11T22:56:34.468Z,99.90
2023-02-11T22:59:04.814Z,99.90
2023-02-11T23:01:33.745Z,99.90
2023-02-11T23:04:04.193Z,99.90
2023-02-11T23:06:32.917Z,99.90
2023-02-11T23:09:01.636Z,99.90
2023-02-11T23:11:33.116Z,99.90
2023-02-11T23:14:02.656Z,99.90
2023-02-11T23:16:34.113Z,99.90
2023-02-11T23:19:06.021Z,99.90
2023-02-11T23:21:37.070Z,99.90
2023-02-11T23:24:08.893Z,99.90
2023-02-11T23:26:39.828Z,99.90
2023-02-11T23:29:08.504Z,99.90
2023-02-11T23:31:40.010Z,99.90
2023-02-11T23:34:09.162Z,99.90
2023-02-11T23:36:38.018Z,99.90
2023-02-11T23:39:07.090Z,99.90
2023-02-11T23:41:36.210Z,99.90
2023-02-11T23:44:06.494Z,99.90
2023-02-11T23:46:34.919Z,99.90
2023-02-11T23:49:03.595Z,99.90
2023-02-11T23:51:32.065Z,99.90
2023-02-11T23:54:00.617Z,99.90
2023-02-11T23:56:29.668Z,99.90
2023-02-11T23:58:59.263Z,99.90
